createdAt,value
2023-01-17T05:00:55.046Z,6.10
2023-01-17T05:03:22.982Z,5.72
2023-01-17T05:05:49.829Z,5.25
2023-01-17T05:08:16.643Z,5.63
2023-01-17T05:10:46.279Z,5.68
2023-01-17T05:13:13.202Z,5.82
2023-01-17T05:15:40.232Z,4.80
2023-01-17T05:18:08.734Z,4.47
2023-01-17T05:20:36.572Z,3.80
2023-01-17T05:23:03.568Z,4.07
2023-01-17T05:25:32.222Z,4.32
2023-01-17T05:28:02.416Z,7.10
2023-01-17T05:32:57.498Z,6.82
2023-01-17T05:35:29.871Z,8.30
2023-01-17T05:37:56.875Z,25.95
2023-01-17T05:40:29.288Z,7.70
2023-01-17T05:42:57.764Z,4.00
2023-01-17T05:45:26.350Z,4.63
2023-01-17T05:47:54.594Z,7.03
2023-01-17T05:50:23.904Z,5.85
2023-01-17T05:52:54.411Z,4.20
2023-01-17T05:55:22.209Z,4.53
2023-01-17T05:57:49.675Z,8.63
2023-01-17T06:00:17.644Z,6.25
2023-01-17T06:02:46.094Z,4.85
2023-01-17T06:05:13.667Z,5.10
2023-01-17T06:07:42.816Z,4.45
2023-01-17T06:10:10.941Z,5.23
2023-01-17T06:12:38.020Z,9.63
2023-01-17T06:15:05.205Z,4.30
2023-01-17T06:17:32.203Z,3.97
2023-01-17T06:19:59.442Z,5.70
2023-01-17T06:22:26.405Z,4.65
2023-01-17T06:24:53.199Z,4.20
2023-01-17T06:27:20.093Z,5.00
2023-01-17T06:29:46.920Z,3.75
2023-01-17T06:32:14.194Z,5.15
2023-01-17T06:34:41.189Z,3.42
2023-01-17T06:37:10.000Z,6.63
2023-01-17T06:39:37.037Z,4.50
2023-01-17T06:42:04.427Z,4.30
2023-01-17T06:44:31.447Z,6.40
2023-01-17T06:46:58.533Z,4.70
2023-01-17T06:49:25.499Z,6.88
2023-01-17T06:51:53.435Z,4.20
2023-01-17T06:54:21.911Z,5.63
2023-01-17T06:56:48.681Z,5.97
2023-01-17T06:59:15.552Z,7.60
2023-01-17T07:01:42.533Z,7.43
2023-01-17T07:04:09.314Z,6.88
2023-01-17T07:06:37.011Z,4.78
2023-01-17T07:09:04.521Z,4.95
2023-01-17T07:11:31.626Z,8.05
2023-01-17T07:13:58.544Z,5.82
2023-01-17T07:16:25.410Z,4.97
2023-01-17T07:18:52.270Z,5.35
2023-01-17T07:21:19.315Z,6.35
2023-01-17T07:23:46.196Z,4.80
2023-01-17T07:26:12.942Z,3.92
2023-01-17T07:28:39.740Z,4.85
2023-01-17T07:31:08.086Z,8.50
2023-01-17T07:33:35.184Z,7.85
2023-01-17T07:36:07.327Z,4.35
2023-01-17T07:38:34.756Z,6.45
2023-01-17T07:41:01.902Z,5.88
2023-01-17T07:43:29.024Z,4.90
2023-01-17T07:45:55.860Z,5.70
2023-01-17T07:48:24.252Z,5.78
2023-01-17T07:50:56.018Z,7.97
2023-01-17T07:53:28.422Z,11.82
2023-01-17T07:55:55.828Z,30.85
2023-01-17T07:58:22.555Z,20.75
2023-01-17T08:00:49.487Z,19.52
2023-01-17T08:03:20.686Z,18.00
2023-01-17T08:05:55.651Z,12.05
2023-01-17T08:08:23.030Z,11.02
2023-01-17T08:10:51.453Z,9.57
2023-01-17T08:13:18.498Z,8.00
2023-01-17T08:15:49.208Z,5.80
2023-01-17T08:18:17.651Z,7.07
2023-01-17T08:20:44.821Z,7.10
2023-01-17T08:23:12.150Z,8.63
2023-01-17T08:25:39.537Z,8.40
2023-01-17T08:28:07.450Z,9.10
2023-01-17T08:30:35.345Z,13.23
2023-01-17T08:33:02.181Z,13.05
2023-01-17T08:35:29.555Z,10.35
2023-01-17T08:38:00.751Z,8.80
2023-01-17T08:40:28.051Z,10.55
2023-01-17T08:42:56.278Z,8.75
2023-01-17T08:45:26.036Z,10.98
2023-01-17T08:47:53.266Z,10.93
2023-01-17T08:50:20.835Z,11.75
2023-01-17T08:52:51.113Z,81.63
2023-01-17T08:57:44.930Z,181.70
2023-01-17T09:00:13.254Z,124.20
2023-01-17T09:02:40.115Z,105.55
2023-01-17T09:05:07.449Z,129.07
2023-01-17T09:07:35.722Z,39.42
2023-01-17T09:10:05.315Z,25.55
2023-01-17T09:12:33.313Z,92.32
2023-01-17T09:15:00.803Z,26.48
2023-01-17T09:17:27.622Z,9.40
2023-01-17T09:19:54.385Z,8.50
2023-01-17T09:22:21.116Z,4.75
2023-01-17T09:24:47.848Z,6.57
2023-01-17T09:27:15.025Z,6.47
2023-01-17T09:29:41.857Z,6.80
2023-01-17T09:32:08.646Z,5.57
2023-01-17T09:34:35.769Z,7.07
2023-01-17T09:37:02.774Z,6.75
2023-01-17T09:39:30.999Z,10.00
2023-01-17T09:41:59.593Z,6.60
2023-01-17T09:44:29.860Z,7.25
2023-01-17T09:49:37.748Z,6.43
2023-01-17T09:52:05.588Z,6.22
2023-01-17T09:54:38.716Z,6.47
2023-01-17T09:57:21.109Z,6.60
2023-01-17T10:00:02.891Z,5.63
2023-01-17T10:02:51.747Z,5.78
2023-01-17T10:05:37.934Z,5.40
2023-01-17T10:08:33.629Z,4.57
2023-01-17T10:11:58.965Z,3.42
2023-01-17T10:15:12.363Z,4.72
2023-01-17T10:18:28.902Z,7.22
2023-01-17T10:21:03.589Z,3.83
2023-01-17T10:24:13.710Z,3.13
2023-01-17T10:26:42.165Z,5.30
2023-01-17T10:29:14.472Z,4.55
2023-01-17T10:31:46.030Z,5.22
2023-01-17T10:34:17.744Z,5.28
2023-01-17T10:36:53.047Z,3.25
2023-01-17T10:39:24.957Z,4.60
2023-01-17T10:42:29.308Z,8.10
2023-01-17T10:45:08.199Z,5.18
2023-01-17T10:47:37.500Z,3.45
2023-01-17T10:50:11.575Z,5.73
2023-01-17T10:53:06.044Z,4.82
2023-01-17T10:55:48.236Z,7.95
2023-01-17T10:58:15.491Z,4.25
2023-01-17T11:00:50.620Z,4.55
2023-01-17T11:03:24.026Z,5.57
2023-01-17T11:06:23.189Z,8.85
2023-01-17T11:08:56.341Z,7.55
2023-01-17T11:11:32.157Z,6.68
2023-01-17T11:14:02.150Z,4.88
2023-01-17T11:16:31.485Z,5.72
2023-01-17T11:19:15.420Z,3.73
2023-01-17T11:22:01.745Z,5.47
2023-01-17T11:24:36.190Z,3.60
2023-01-17T11:27:05.728Z,3.63
2023-01-17T11:29:38.878Z,5.00
2023-01-17T11:32:24.585Z,4.57
2023-01-17T11:35:16.611Z,5.78
2023-01-17T11:38:10.676Z,4.25
2023-01-17T11:40:44.180Z,4.43
2023-01-17T11:43:31.277Z,6.38
2023-01-17T11:46:06.511Z,5.25
2023-01-17T11:48:38.279Z,8.23
2023-01-17T11:51:30.618Z,4.75
2023-01-17T11:54:12.385Z,4.50
2023-01-17T11:56:46.042Z,5.82
2023-01-17T11:59:27.100Z,5.85
2023-01-17T12:02:24.958Z,6.30
2023-01-17T12:05:15.405Z,4.65
2023-01-17T12:07:59.991Z,4.63
2023-01-17T12:10:52.632Z,5.65
2023-01-17T12:14:00.683Z,7.00
2023-01-17T12:16:57.540Z,6.30
2023-01-17T12:20:16.551Z,6.75
2023-01-17T12:22:51.361Z,6.80
2023-01-17T12:25:27.527Z,3.70
2023-01-17T12:28:23.680Z,5.97
2023-01-17T12:31:08.665Z,4.45
2023-01-17T12:33:58.237Z,5.38
2023-01-17T12:36:36.130Z,3.60
2023-01-17T12:39:11.981Z,3.97
2023-01-17T12:42:09.295Z,5.32
2023-01-17T12:44:59.151Z,6.03
2023-01-17T12:47:26.238Z,5.93
2023-01-17T12:49:52.918Z,4.95
2023-01-17T12:52:50.655Z,5.78
2023-01-17T12:55:24.249Z,3.88
2023-01-17T12:58:00.011Z,7.13
2023-01-17T13:00:29.752Z,5.50
2023-01-17T13:03:03.882Z,4.40
2023-01-17T13:05:41.098Z,5.05
2023-01-17T13:08:31.455Z,4.35
2023-01-17T13:11:11.334Z,4.43
2023-01-17T13:13:39.225Z,4.82
2023-01-17T13:16:16.792Z,4.72
2023-01-17T13:18:46.481Z,4.88
2023-01-17T13:21:35.884Z,4.60
2023-01-17T13:24:16.227Z,5.90
2023-01-17T13:26:46.197Z,8.18
2023-01-17T13:29:34.300Z,3.85
2023-01-17T13:32:10.815Z,5.25
2023-01-17T13:35:12.010Z,4.20
2023-01-17T13:38:06.755Z,6.13
2023-01-17T13:41:01.473Z,4.88
2023-01-17T13:43:33.761Z,5.35
2023-01-17T13:46:05.456Z,6.32
2023-01-17T13:48:41.124Z,4.20
2023-01-17T13:51:09.230Z,5.65
2023-01-17T13:53:37.168Z,5.18
2023-01-17T13:56:19.518Z,6.63
2023-01-17T13:58:50.480Z,5.38
2023-01-17T14:01:23.712Z,5.57
2023-01-17T14:03:59.507Z,4.95
2023-01-17T14:06:33.894Z,5.68
2023-01-17T14:09:03.424Z,4.75
2023-01-17T14:11:34.318Z,4.78
2023-01-17T14:14:39.809Z,5.10
2023-01-17T14:17:28.078Z,5.03
2023-01-17T14:20:03.400Z,4.50
2023-01-17T14:22:39.567Z,4.93
2023-01-17T14:25:12.225Z,5.65
2023-01-17T14:27:51.873Z,5.63
2023-01-17T14:30:34.715Z,5.05
2023-01-17T14:33:02.174Z,4.72
2023-01-17T14:35:36.016Z,5.53
2023-01-17T14:38:20.408Z,5.82
2023-01-17T14:41:01.135Z,7.53
2023-01-17T14:43:33.000Z,4.07
2023-01-17T14:46:05.886Z,6.53
2023-01-17T14:48:32.873Z,5.45
2023-01-17T14:51:00.522Z,4.90
2023-01-17T14:53:29.484Z,4.90
2023-01-17T14:56:00.632Z,6.35
2023-01-17T14:58:32.380Z,6.82
2023-01-17T15:01:04.843Z,5.57
2023-01-17T15:03:41.365Z,6.40
2023-01-17T15:06:16.239Z,6.63
2023-01-17T15:08:43.191Z,5.75
2023-01-17T15:11:20.613Z,6.85
2023-01-17T15:13:49.964Z,4.68
2023-01-17T15:16:41.190Z,7.00
2023-01-17T15:19:13.140Z,4.30
2023-01-17T15:21:43.393Z,5.10
2023-01-17T15:26:43.683Z,5.22
2023-01-17T15:29:26.014Z,7.82
2023-01-17T15:32:00.681Z,5.55
2023-01-17T15:34:36.497Z,6.10
2023-01-17T15:37:29.847Z,5.85
2023-01-17T15:40:16.816Z,5.47
2023-01-17T15:42:45.171Z,5.72
2023-01-17T15:45:15.747Z,7.15
2023-01-17T15:47:42.847Z,4.95
2023-01-17T15:50:26.710Z,7.35
2023-01-17T15:52:59.516Z,6.00
2023-01-17T15:55:33.713Z,4.63
2023-01-17T15:58:00.816Z,4.00
2023-01-17T16:00:39.242Z,5.93
2023-01-17T16:03:23.165Z,7.82
2023-01-17T16:05:51.173Z,8.45
2023-01-17T16:08:23.545Z,9.55
2023-01-17T16:10:53.584Z,7.60
2023-01-17T16:13:20.508Z,6.22
2023-01-17T16:15:49.167Z,6.50
2023-01-17T16:18:24.361Z,9.95
2023-01-17T16:21:05.683Z,7.35
2023-01-17T16:23:32.701Z,6.50
2023-01-17T16:25:59.670Z,5.82
2023-01-17T16:28:27.002Z,4.95
2023-01-17T16:30:54.389Z,7.05
2023-01-17T16:33:21.333Z,6.95
2023-01-17T16:35:49.634Z,6.57
2023-01-17T16:38:17.659Z,7.82
2023-01-17T16:40:45.480Z,6.85
2023-01-17T16:43:15.180Z,9.48
2023-01-17T16:45:45.153Z,8.27
2023-01-17T16:48:12.654Z,8.35
2023-01-17T16:50:48.261Z,9.27
2023-01-17T16:53:15.603Z,10.75
2023-01-17T16:55:43.518Z,8.95
2023-01-17T16:58:10.811Z,10.45
2023-01-17T17:00:39.328Z,7.88
2023-01-17T17:03:06.294Z,6.80
2023-01-17T17:05:37.446Z,9.43
2023-01-17T17:08:04.559Z,7.88
2023-01-17T17:10:31.894Z,9.63
2023-01-17T17:13:00.940Z,8.32
2023-01-17T17:17:56.195Z,8.85
2023-01-17T17:20:25.156Z,7.20
2023-01-17T17:22:52.719Z,8.65
2023-01-17T17:25:19.788Z,10.65
2023-01-17T17:27:46.599Z,14.88
2023-01-17T17:30:13.841Z,13.98
2023-01-17T17:32:44.629Z,15.95
2023-01-17T17:35:11.417Z,15.77
2023-01-17T17:37:38.259Z,30.00
2023-01-17T17:40:05.974Z,33.92
2023-01-17T17:42:32.816Z,27.13
2023-01-17T17:44:59.722Z,26.58
2023-01-17T17:47:26.769Z,31.42
2023-01-17T17:49:53.674Z,33.30
2023-01-17T17:52:21.134Z,35.30
2023-01-17T17:54:48.850Z,16.13
2023-01-17T17:57:15.644Z,11.25
2023-01-17T17:59:42.620Z,9.73
2023-01-17T18:02:11.146Z,7.95
2023-01-17T18:04:38.355Z,8.38
2023-01-17T18:07:05.463Z,7.20
2023-01-17T18:09:32.329Z,6.63
2023-01-17T18:12:01.938Z,7.40
2023-01-17T18:14:28.945Z,6.70
2023-01-17T18:16:57.261Z,9.98
2023-01-17T18:19:25.903Z,4.80
2023-01-17T18:21:53.203Z,8.10
2023-01-17T18:24:23.151Z,6.40
2023-01-17T18:26:57.280Z,7.65
2023-01-17T18:29:25.551Z,6.72
2023-01-17T18:31:53.461Z,5.72
2023-01-17T18:34:24.224Z,5.60
2023-01-17T18:36:52.351Z,8.85
2023-01-17T18:39:28.029Z,5.50
2023-01-17T18:41:55.212Z,9.27
2023-01-17T18:44:22.776Z,8.20
2023-01-17T18:46:53.882Z,6.78
2023-01-17T18:49:21.398Z,6.60
2023-01-17T18:51:51.081Z,8.45
2023-01-17T18:56:46.161Z,8.00
2023-01-17T18:59:14.551Z,8.02
2023-01-17T19:01:43.880Z,12.32
2023-01-17T19:04:12.383Z,16.80
2023-01-17T19:06:42.010Z,15.02
2023-01-17T19:09:10.270Z,18.40
2023-01-17T19:11:37.237Z,16.50
2023-01-17T19:14:04.998Z,11.55
2023-01-17T19:16:35.139Z,7.30
2023-01-17T19:21:31.013Z,8.13
2023-01-17T19:23:59.020Z,8.15
2023-01-17T19:26:27.488Z,9.18
2023-01-17T19:28:56.957Z,5.88
2023-01-17T19:31:26.247Z,6.35
2023-01-17T19:33:58.386Z,6.73
2023-01-17T19:36:32.284Z,10.60
2023-01-17T19:39:05.593Z,10.35
2023-01-17T19:41:35.186Z,6.55
2023-01-17T19:44:08.333Z,9.35
2023-01-17T19:46:36.106Z,7.72
2023-01-17T19:49:04.876Z,6.53
2023-01-17T19:51:31.905Z,7.65
2023-01-17T19:54:04.319Z,7.93
2023-01-17T19:56:33.587Z,6.50
2023-01-17T19:59:07.413Z,7.47
2023-01-17T20:01:35.937Z,6.32
2023-01-17T20:04:08.309Z,8.93
2023-01-17T20:06:36.742Z,5.65
2023-01-17T20:09:08.910Z,8.30
2023-01-17T20:11:41.000Z,13.68
2023-01-17T20:14:09.768Z,6.60
2023-01-17T20:16:37.674Z,8.55
2023-01-17T20:19:05.072Z,7.13
2023-01-17T20:21:32.598Z,6.93
2023-01-17T20:24:03.365Z,8.52
2023-01-17T20:26:36.188Z,7.80
2023-01-17T20:29:15.145Z,7.93
2023-01-17T20:31:43.308Z,6.18
2023-01-17T20:34:12.459Z,6.78
2023-01-17T20:36:41.589Z,8.13
2023-01-17T20:39:09.433Z,7.15
2023-01-17T20:41:38.055Z,5.97
2023-01-17T20:44:13.107Z,4.88
2023-01-17T20:46:41.209Z,7.10
2023-01-17T20:49:14.887Z,7.72
2023-01-17T20:51:44.199Z,6.22
2023-01-17T20:54:14.383Z,11.63
2023-01-17T20:56:42.003Z,8.25
2023-01-17T20:59:12.759Z,7.80
2023-01-17T21:01:40.011Z,11.35
2023-01-17T21:04:10.350Z,7.05
2023-01-17T21:09:07.472Z,8.13
2023-01-17T21:11:34.666Z,9.50
2023-01-17T21:14:01.901Z,9.18
2023-01-17T21:16:28.996Z,6.05
2023-01-17T21:18:56.132Z,8.10
2023-01-17T21:21:26.785Z,8.48
2023-01-17T21:23:57.370Z,7.10
2023-01-17T21:26:25.871Z,10.63
2023-01-17T21:28:52.991Z,12.10
2023-01-17T21:31:24.488Z,9.18
2023-01-17T21:34:00.670Z,10.32
2023-01-17T21:36:33.177Z,12.30
2023-01-17T21:39:04.794Z,12.45
2023-01-17T21:41:41.615Z,11.50
2023-01-17T21:44:13.265Z,11.15
2023-01-17T21:46:44.529Z,12.43
2023-01-17T21:49:12.010Z,10.38
2023-01-17T21:51:54.921Z,9.43
2023-01-17T21:54:51.030Z,7.53
2023-01-17T21:57:39.545Z,12.13
2023-01-17T22:03:10.227Z,9.35
2023-01-17T22:05:37.072Z,9.20
2023-01-17T22:08:14.288Z,9.85
2023-01-17T22:10:44.624Z,11.63
2023-01-17T22:13:16.458Z,8.55
2023-01-17T22:15:43.643Z,10.02
2023-01-17T22:18:11.206Z,8.07
2023-01-17T22:23:11.851Z,11.18
2023-01-17T22:25:38.630Z,8.65
2023-01-17T22:28:08.141Z,10.20
2023-01-17T22:30:34.916Z,11.77
2023-01-17T22:33:01.626Z,10.35
2023-01-17T22:35:28.428Z,12.35
2023-01-17T22:37:55.326Z,10.98
2023-01-17T22:40:22.306Z,8.57
2023-01-17T22:42:49.111Z,8.15
2023-01-17T22:45:17.308Z,10.80
2023-01-17T22:47:44.537Z,9.77
2023-01-17T22:50:11.507Z,9.93
2023-01-17T22:52:38.336Z,12.35
2023-01-17T22:55:05.799Z,8.35
2023-01-17T22:57:33.095Z,8.98
2023-01-17T23:00:00.013Z,9.95
2023-01-17T23:02:26.820Z,10.60
2023-01-17T23:04:53.628Z,7.93
2023-01-17T23:07:20.462Z,8.80
2023-01-17T23:09:47.384Z,7.30
2023-01-17T23:12:14.168Z,8.60
2023-01-17T23:14:59.373Z,7.47
2023-01-17T23:17:44.608Z,11.18
2023-01-17T23:20:12.028Z,9.07
2023-01-17T23:22:38.823Z,9.07
2023-01-17T23:25:13.274Z,10.02
2023-01-17T23:28:03.795Z,9.32
2023-01-17T23:30:41.383Z,8.75
2023-01-17T23:33:10.507Z,9.18
2023-01-17T23:35:42.555Z,9.80
2023-01-17T23:38:26.490Z,8.85
2023-01-17T23:41:12.318Z,12.00
2023-01-17T23:43:39.078Z,9.48
2023-01-17T23:46:06.125Z,10.15
2023-01-17T23:48:32.850Z,10.20
2023-01-17T23:51:02.241Z,8.45
2023-01-17T23:53:29.088Z,10.30
2023-01-17T23:55:56.973Z,8.57
2023-01-17T23:58:25.808Z,10.65
